Time;durP1;ratioP1;P1;durP2;ratioP2;P2;SDS_P1;SDS_P2;PMS_P1;PMS_P2;Temp;Humidity;BMP_temperature;BMP_pressure;BME280_temperature;BME280_humidity;BME280_pressure;Samples;Min_cycle;Max_cycle;Signal;HPM_P1;HPM_P2
2022/06/04 00:00:43;;;;;;;6.80;3.85;;;;;;;23.32;78.79;100530.50;5068532;28;20033;-66
2022/06/04 00:03:10;;;;;;;4.55;3.90;;;;;;;23.25;81.03;100525.03;5068643;28;20809;-66
2022/06/04 00:05:39;;;;;;;6.55;4.20;;;;;;;23.21;81.29;100517.44;5067140;28;20525;-65
2022/06/04 00:08:07;;;;;;;5.30;4.50;;;;;;;23.17;86.98;100521.63;5069000;28;20097;-70
2022/06/04 00:16:11;;;;;;;6.22;4.40;;;;;;;23.07;91.04;100521.22;5069592;28;20075;-69
2022/06/04 00:18:39;;;;;;;13.15;4.85;;;;;;;23.00;91.21;100515.75;5069091;28;20029;-70
2022/06/04 00:21:06;;;;;;;7.80;5.18;;;;;;;22.98;92.51;100517.84;5069057;28;20034;-70
2022/06/04 00:23:31;;;;;;;6.13;4.68;;;;;;;22.94;93.79;100521.22;5057756;28;20028;-70
2022/06/04 00:25:58;;;;;;;6.28;4.05;;;;;;;22.90;90.82;100519.94;5052087;28;20085;-70
2022/06/04 00:28:25;;;;;;;6.50;4.88;;;;;;;22.84;92.69;100513.44;5068939;28;20533;-69
2022/06/04 00:30:52;;;;;;;7.40;5.78;;;;;;;22.71;93.84;100494.25;5068795;28;20043;-70
2022/06/04 00:33:18;;;;;;;9.15;5.13;;;;;;;22.75;94.23;100492.78;5068522;28;20439;-70
2022/06/04 00:35:46;;;;;;;6.75;5.60;;;;;;;22.72;94.50;100485.00;5052919;28;20067;-69
2022/06/04 00:38:14;;;;;;;6.20;5.57;;;;;;;22.68;96.13;100464.59;5059420;28;20546;-70
2022/06/04 00:40:42;;;;;;;6.57;5.80;;;;;;;22.64;95.78;100446.06;5047933;28;20028;-70
2022/06/04 00:43:08;;;;;;;10.82;5.68;;;;;;;22.62;96.59;100446.28;5047425;28;20021;-70
2022/06/04 00:45:36;;;;;;;6.88;5.25;;;;;;;22.61;95.80;100449.22;5047900;28;20123;-70
2022/06/04 00:48:06;;;;;;;8.07;5.95;;;;;;;22.61;97.04;100454.69;5047559;28;20123;-70
2022/06/04 00:50:34;;;;;;;7.15;5.55;;;;;;;22.59;97.66;100441.22;5048084;28;20071;-70
2022/06/04 00:53:03;;;;;;;6.53;5.93;;;;;;;22.55;97.67;100439.97;5057596;28;20040;-70
2022/06/04 00:55:38;;;;;;;9.50;5.95;;;;;;;22.55;97.77;100429.03;5068007;28;20474;-70
2022/06/04 00:58:20;;;;;;;6.57;5.43;;;;;;;22.55;99.81;100423.56;5060187;28;20470;-71
2022/06/04 01:01:17;;;;;;;7.00;5.72;;;;;;;22.54;99.51;100404.63;5047389;28;20029;-71
2022/06/04 01:04:03;;;;;;;5.97;5.30;;;;;;;22.53;98.50;100390.13;5047351;28;20032;-70
2022/06/04 01:06:57;;;;;;;7.13;5.25;;;;;;;22.50;97.96;100368.66;5047125;28;20049;-71
2022/06/04 01:09:43;;;;;;;5.50;4.95;;;;;;;22.46;95.44;100358.31;5050377;28;20112;-72
2022/06/04 01:12:30;;;;;;;7.43;5.72;;;;;;;22.45;95.85;100362.97;5052972;28;20102;-70
2022/06/04 01:15:23;;;;;;;6.72;5.70;;;;;;;22.45;97.94;100348.44;5067134;28;20024;-71
2022/06/04 01:18:23;;;;;;;7.40;5.30;;;;;;;22.36;98.98;100331.41;5067070;28;20451;-70
2022/06/04 01:21:10;;;;;;;6.43;5.80;;;;;;;22.44;98.30;100344.03;5059397;28;20078;-71
2022/06/04 01:24:00;;;;;;;5.85;5.35;;;;;;;22.44;98.47;100349.50;5067211;28;20035;-71
2022/06/04 01:26:45;;;;;;;6.03;5.35;;;;;;;22.44;99.42;100357.72;5067048;28;20028;-71
2022/06/04 01:29:18;;;;;;;;;;;;;;;22.40;100.00;100353.72;5067585;28;20036;-70
2022/06/04 01:31:49;;;;;;;6.05;5.45;;;;;;;22.24;98.47;100327.63;5060572;28;19912;-69
2022/06/04 01:34:21;;;;;;;8.60;6.00;;;;;;;22.38;97.96;100335.63;5047246;28;20052;-71
2022/06/04 01:37:19;;;;;;;13.93;5.90;;;;;;;22.38;97.56;100344.88;5058494;28;20024;-71
2022/06/04 01:42:36;;;;;;;7.47;6.20;;;;;;;22.29;98.58;100350.53;5047220;28;20043;-71
2022/06/04 01:45:07;;;;;;;7.40;6.30;;;;;;;22.35;98.97;100368.00;5062512;28;20032;-71
2022/06/04 01:47:35;;;;;;;7.20;6.32;;;;;;;22.33;100.00;100370.97;5047001;28;20029;-69
2022/06/04 01:50:03;;;;;;;6.88;5.88;;;;;;;22.37;100.00;100362.34;5047208;28;20028;-70
2022/06/04 01:52:35;;;;;;;8.23;6.10;;;;;;;22.32;100.00;100352.03;5059048;28;20124;-70
2022/06/04 01:55:09;;;;;;;5.50;5.00;;;;;;;22.33;100.00;100368.22;5045778;28;20447;-71
2022/06/04 01:57:41;;;;;;;;;;;;;;;22.30;100.00;100376.84;5061747;28;20086;-70
2022/06/04 02:00:10;;;;;;;7.85;5.80;;;;;;;22.29;100.00;100388.78;5067095;28;20275;-70
2022/06/04 02:02:52;;;;;;;11.13;6.22;;;;;;;22.22;100.00;100384.41;5051350;28;20033;-70
2022/06/04 02:05:23;;;;;;;8.32;7.25;;;;;;;22.25;100.00;100389.44;5067475;28;20040;-71
2022/06/04 02:07:52;;;;;;;8.38;7.15;;;;;;;22.23;100.00;100391.53;5067083;28;20040;-70
2022/06/04 02:10:23;;;;;;;7.45;6.85;;;;;;;22.23;100.00;100397.84;5065233;28;20021;-71
2022/06/04 02:12:52;;;;;;;6.78;6.05;;;;;;;22.20;100.00;100408.34;5048831;28;20037;-71
2022/06/04 02:15:22;;;;;;;7.82;6.60;;;;;;;22.16;100.00;100401.63;5065521;28;20070;-69
2022/06/04 02:17:53;;;;;;;9.90;6.65;;;;;;;22.06;100.00;100395.72;5045477;28;20035;-69
2022/06/04 02:20:19;;;;;;;6.68;6.07;;;;;;;22.11;100.00;100406.84;5047363;28;20021;-71
2022/06/04 02:22:45;;;;;;;7.25;6.18;;;;;;;22.09;100.00;100417.97;5050403;28;20040;-70
2022/06/04 02:25:12;;;;;;;6.85;6.13;;;;;;;22.06;100.00;100420.31;5060723;28;20089;-70
2022/06/04 02:27:39;;;;;;;8.15;6.82;;;;;;;21.95;100.00;100413.53;5047215;28;20112;-70
2022/06/04 02:30:07;;;;;;;8.63;6.90;;;;;;;21.96;100.00;100419.84;5046717;28;20036;-71
2022/06/04 02:33:06;;;;;;;7.82;6.90;;;;;;;21.91;100.00;100415.00;5047156;28;20059;-71
2022/06/04 02:35:38;;;;;;;8.38;7.65;;;;;;;21.92;100.00;100413.94;5039796;28;20510;-70
2022/06/04 02:38:13;;;;;;;8.50;6.78;;;;;;;21.90;100.00;100413.28;5065473;28;20035;-71
2022/06/04 02:41:04;;;;;;;10.65;8.65;;;;;;;21.88;100.00;100404.50;5054542;28;20029;-71
2022/06/04 02:43:52;;;;;;;10.85;8.60;;;;;;;21.85;100.00;100410.34;5066956;28;20040;-71
2022/06/04 02:46:27;;;;;;;8.70;7.80;;;;;;;21.85;100.00;100409.50;5057278;28;20471;-70
2022/06/04 02:49:21;;;;;;;7.30;6.50;;;;;;;21.78;100.00;100419.56;5046618;28;20080;-72
2022/06/04 02:51:51;;;;;;;8.27;7.57;;;;;;;21.81;100.00;100435.53;5050099;28;20162;-70
2022/06/04 02:54:22;;;;;;;7.35;6.63;;;;;;;21.80;100.00;100436.59;5053564;28;20029;-69
2022/06/04 02:56:50;;;;;;;9.32;8.35;;;;;;;21.70;100.00;100417.00;5065472;28;20097;-70
2022/06/04 02:59:18;;;;;;;9.05;8.25;;;;;;;21.72;100.00;100409.41;5047526;28;20044;-71
2022/06/04 03:01:47;;;;;;;9.13;8.23;;;;;;;21.67;100.00;100409.22;5056899;28;20030;-71
2022/06/04 03:04:13;;;;;;;9.52;8.63;;;;;;;21.65;100.00;100395.75;5057940;28;20405;-71
2022/06/04 03:06:38;;;;;;;9.13;8.07;;;;;;;21.68;100.00;100405.44;5053115;28;20102;-71
2022/06/04 03:09:09;;;;;;;9.27;8.40;;;;;;;21.68;100.00;100409.00;5050433;28;20464;-71
2022/06/04 03:11:44;;;;;;;8.43;7.63;;;;;;;21.69;100.00;100401.63;5048853;28;20040;-71
2022/06/04 03:14:10;;;;;;;12.73;8.55;;;;;;;21.64;100.00;100387.78;5049949;28;20116;-70
2022/06/04 03:16:39;;;;;;;12.18;8.45;;;;;;;21.69;100.00;100388.84;5046358;28;20074;-70
2022/06/04 03:19:07;;;;;;;8.38;7.55;;;;;;;21.71;100.00;100397.69;5052853;28;20468;-71
2022/06/04 03:21:34;;;;;;;7.93;7.13;;;;;;;21.72;100.00;100396.63;5050345;28;20528;-71
2022/06/04 03:24:00;;;;;;;8.63;7.50;;;;;;;21.73;100.00;100390.13;5063793;28;20125;-71
2022/06/04 03:26:26;;;;;;;8.02;7.25;;;;;;;21.73;100.00;100378.41;5057787;28;20514;-71
2022/06/04 03:28:51;;;;;;;9.88;8.23;;;;;;;21.67;100.00;100374.53;5063944;28;20028;-70
2022/06/04 03:31:17;;;;;;;8.55;7.65;;;;;;;21.76;100.00;100388.88;5059485;28;20028;-72
2022/06/04 03:33:42;;;;;;;10.10;8.35;;;;;;;21.70;100.00;100382.31;5064107;28;20024;-72
2022/06/04 03:36:11;;;;;;;7.90;7.20;;;;;;;21.71;100.00;100380.44;5056158;28;20021;-70
2022/06/04 03:38:36;;;;;;;8.60;7.70;;;;;;;21.75;100.00;100388.06;5068014;28;20040;-70
2022/06/04 03:41:02;;;;;;;8.95;7.80;;;;;;;21.74;100.00;100386.34;5061894;28;20453;-72
2022/06/04 03:43:28;;;;;;;10.52;8.10;;;;;;;21.75;100.00;100370.81;5067009;28;20095;-72
2022/06/04 03:58:54;;;;;;;7.40;6.70;;;;;;;21.97;100.00;100362.28;6202733;22;1917868;-65
2022/06/04 04:01:23;;;;;;;9.10;8.07;;;;;;;22.08;100.00;100367.13;6282526;22;20194;-64
2022/06/04 04:03:49;;;;;;;9.43;8.52;;;;;;;21.94;100.00;100364.56;6280938;22;20419;-64
2022/06/04 04:06:18;;;;;;;9.07;8.15;;;;;;;21.97;100.00;100375.94;6280237;22;20008;-64
2022/06/04 04:08:44;;;;;;;11.35;9.25;;;;;;;21.94;100.00;100376.34;6282389;22;20003;-64
2022/06/04 04:11:14;;;;;;;10.18;9.13;;;;;;;21.85;100.00;100360.34;6279947;22;20014;-65
2022/06/04 04:13:40;;;;;;;9.45;7.80;;;;;;;21.92;100.00;100372.13;6280005;22;20320;-65
2022/06/04 04:16:08;;;;;;;8.13;7.10;;;;;;;21.91;100.00;100365.84;6279850;22;20071;-65
2022/06/04 04:18:34;;;;;;;11.02;8.57;;;;;;;21.90;99.58;100353.22;6277577;22;20031;-65
2022/06/04 04:21:04;;;;;;;8.25;7.45;;;;;;;21.88;99.05;100346.28;6279300;22;20007;-65
2022/06/04 04:23:30;;;;;;;10.20;7.88;;;;;;;21.88;99.45;100347.13;6282253;22;19999;-65
2022/06/04 04:25:55;;;;;;;8.63;7.88;;;;;;;21.88;98.95;100340.81;6282210;22;20027;-65
2022/06/04 04:28:21;;;;;;;9.68;8.68;;;;;;;21.86;99.59;100341.03;6281778;22;20013;-65
2022/06/04 04:30:46;;;;;;;9.32;8.35;;;;;;;21.78;100.00;100324.00;6282159;22;20495;-65
2022/06/04 04:33:12;;;;;;;9.13;8.07;;;;;;;21.78;100.00;100324.00;6282159;22;20086;-65
2022/06/04 04:35:37;;;;;;;10.15;9.13;;;;;;;21.74;100.00;100311.81;6280158;22;20053;-65
2022/06/04 04:38:03;;;;;;;9.48;8.30;;;;;;;21.79;100.00;100317.47;6281880;22;20000;-65
2022/06/04 04:40:31;;;;;;;9.27;7.90;;;;;;;21.76;99.97;100316.00;6281900;22;19999;-65
2022/06/04 04:42:57;;;;;;;8.45;7.47;;;;;;;21.85;98.45;100314.78;6281793;22;20068;-65
2022/06/04 04:45:24;;;;;;;7.97;7.07;;;;;;;21.84;98.43;100317.72;6280209;22;20011;-66
2022/06/04 04:47:51;;;;;;;11.80;8.85;;;;;;;21.69;98.70;100297.88;6281821;22;20301;-65
2022/06/04 04:50:22;;;;;;;11.57;8.90;;;;;;;21.78;97.92;100311.19;6282053;22;20008;-65
2022/06/04 04:52:47;;;;;;;7.75;7.05;;;;;;;21.78;98.65;100307.59;6281130;22;20015;-65
2022/06/04 04:55:13;;;;;;;10.60;9.43;;;;;;;21.75;98.07;100313.47;6281909;22;20034;-65
2022/06/04 04:57:38;;;;;;;9.82;8.75;;;;;;;21.56;98.42;100292.41;6280788;22;20094;-65
2022/06/04 05:00:07;;;;;;;10.40;9.30;;;;;;;21.68;99.63;100321.63;6274613;22;20008;-65
2022/06/04 05:02:34;;;;;;;9.68;7.90;;;;;;;21.69;99.27;100319.72;6273124;22;20099;-65
2022/06/04 05:04:59;;;;;;;9.90;8.38;;;;;;;21.64;99.56;100309.41;6274738;22;20031;-65
2022/06/04 05:07:25;;;;;;;9.88;8.88;;;;;;;21.57;99.86;100296.81;6274825;22;20006;-65
2022/06/04 05:09:51;;;;;;;8.35;7.60;;;;;;;21.67;99.69;100330.03;6274662;22;20061;-65
2022/06/04 05:12:16;;;;;;;9.27;8.38;;;;;;;21.68;99.48;100334.44;6274880;22;20437;-65
2022/06/04 05:14:42;;;;;;;11.13;9.32;;;;;;;21.65;99.96;100340.31;6274367;22;20079;-65
2022/06/04 05:17:08;;;;;;;12.60;9.45;;;;;;;21.62;100.00;100333.38;6274582;22;19999;-65
2022/06/04 05:19:34;;;;;;;11.27;8.80;;;;;;;21.63;100.00;100345.13;6272971;22;20008;-64
2022/06/04 05:21:59;;;;;;;12.75;9.18;;;;;;;21.66;100.00;100356.47;6274743;22;20008;-65
2022/06/04 05:24:31;;;;;;;10.80;9.70;;;;;;;21.64;100.00;100357.75;6272872;22;20007;-65
2022/06/04 05:26:57;;;;;;;12.13;10.25;;;;;;;21.58;100.00;100364.00;6274680;22;20081;-65
2022/06/04 05:29:23;;;;;;;12.73;9.40;;;;;;;21.57;100.00;100359.63;6274478;22;20412;-66
2022/06/04 05:31:50;;;;;;;15.93;9.40;;;;;;;21.46;100.00;100358.31;6274842;22;20008;-65
2022/06/04 05:34:18;;;;;;;16.63;9.80;;;;;;;21.48;100.00;100355.38;6274890;22;20006;-66
2022/06/04 05:36:45;;;;;;;12.95;9.95;;;;;;;21.35;100.00;100349.84;6274842;22;20004;-65
2022/06/04 05:39:11;;;;;;;12.75;9.80;;;;;;;21.41;100.00;100347.13;6274935;22;20007;-65
2022/06/04 05:41:37;;;;;;;10.50;8.95;;;;;;;21.43;100.00;100352.41;6272910;22;20308;-65
2022/06/04 05:44:04;;;;;;;9.32;8.43;;;;;;;21.41;100.00;100354.50;6272937;22;20003;-64
2022/06/04 05:46:30;;;;;;;12.52;9.25;;;;;;;21.46;100.00;100366.50;6274331;22;20000;-65
2022/06/04 05:48:55;;;;;;;10.70;9.70;;;;;;;21.47;100.00;100367.34;6274380;22;20027;-66
2022/06/04 05:51:24;;;;;;;11.30;10.20;;;;;;;21.42;100.00;100372.56;6274374;22;20039;-66
2022/06/04 05:53:50;;;;;;;14.93;11.10;;;;;;;21.36;100.00;100362.44;6272884;22;20010;-67
2022/06/04 05:56:21;;;;;;;11.15;10.02;;;;;;;21.40;100.00;100394.59;6274397;22;20073;-66
2022/06/04 05:58:48;;;;;;;11.40;10.20;;;;;;;21.34;100.00;100394.53;6272600;22;20015;-66
2022/06/04 06:01:18;;;;;;;12.63;10.45;;;;;;;21.37;100.00;100411.38;6274342;22;20065;-67
2022/06/04 06:03:44;;;;;;;10.95;9.65;;;;;;;21.34;100.00;100416.38;6273693;22;20004;-67
2022/06/04 06:06:15;;;;;;;11.25;9.65;;;;;;;21.35;100.00;100469.94;6272489;22;20025;-72
2022/06/04 06:08:46;;;;;;;9.65;8.07;;;;;;;21.37;100.00;100515.06;6272228;22;20121;-72
2022/06/04 06:11:14;;;;;;;12.15;9.57;;;;;;;21.22;100.00;100502.56;6273407;22;20014;-72
2022/06/04 06:13:40;;;;;;;11.02;9.23;;;;;;;21.16;100.00;100470.63;6274453;22;20470;-72
2022/06/04 06:16:09;;;;;;;11.75;9.68;;;;;;;21.13;100.00;100528.31;6274454;22;20031;-72
2022/06/04 06:18:35;;;;;;;9.15;8.15;;;;;;;21.04;100.00;100518.56;6274359;22;20000;-70
2022/06/04 06:21:16;;;;;;;11.27;9.48;;;;;;;20.98;100.00;100522.09;6274357;22;20009;-71
2022/06/04 06:23:43;;;;;;;13.48;9.20;;;;;;;20.90;100.00;100514.03;6274270;22;20008;-71
2022/06/04 06:26:17;;;;;;;11.55;8.95;;;;;;;20.92;100.00;100515.50;6274153;22;20003;-71
2022/06/04 06:28:44;;;;;;;9.30;8.27;;;;;;;20.91;100.00;100513.81;6274051;22;20011;-71
2022/06/04 06:31:12;;;;;;;10.63;8.23;;;;;;;20.87;100.00;100506.22;6274231;22;20035;-71
2022/06/04 06:33:38;;;;;;;11.65;8.85;;;;;;;20.86;100.00;100505.38;6273903;22;20007;-70
2022/06/04 06:36:07;;;;;;;9.55;7.90;;;;;;;20.89;100.00;100507.72;6274065;22;20029;-70
2022/06/04 06:38:33;;;;;;;11.52;7.15;;;;;;;20.86;100.00;100502.66;6272548;22;20087;-71
2022/06/04 06:40:59;;;;;;;11.20;8.40;;;;;;;20.82;100.00;100492.31;6274045;22;20007;-70
2022/06/04 06:43:34;;;;;;;13.02;8.77;;;;;;;20.77;100.00;100481.19;6274148;22;20004;-71
2022/06/04 06:46:10;;;;;;;10.05;8.88;;;;;;;20.68;100.00;100453.22;6274037;22;20058;-71
2022/06/04 06:48:38;;;;;;;12.10;9.43;;;;;;;20.72;100.00;100450.94;6273830;22;20000;-70
2022/06/04 06:51:07;;;;;;;9.85;8.50;;;;;;;20.73;100.00;100460.81;6274466;22;19999;-71
2022/06/04 06:53:33;;;;;;;11.07;8.35;;;;;;;20.74;100.00;100470.66;6273686;22;20084;-71
2022/06/04 06:56:08;;;;;;;10.45;7.07;;;;;;;20.72;100.00;100473.59;6273790;22;20061;-71
2022/06/04 06:58:33;;;;;;;8.13;7.25;;;;;;;20.63;100.00;100449.41;6273481;22;20118;-71
2022/06/04 07:00:59;;;;;;;9.70;7.70;;;;;;;20.69;100.00;100456.78;6273757;22;20015;-71
2022/06/04 07:03:24;;;;;;;8.80;7.45;;;;;;;20.68;100.00;100447.78;6273839;22;20011;-71
2022/06/04 07:05:55;;;;;;;9.50;7.43;;;;;;;20.67;100.00;100437.06;6273901;22;19999;-71
2022/06/04 07:08:21;;;;;;;9.32;7.45;;;;;;;20.66;100.00;100428.03;6272118;22;20003;-71
2022/06/04 07:10:46;;;;;;;11.30;8.43;;;;;;;20.63;100.00;100422.97;6273488;22;20009;-71
2022/06/04 07:13:12;;;;;;;13.95;9.10;;;;;;;20.64;100.00;100407.47;6273890;22;20010;-71
2022/06/04 07:15:37;;;;;;;8.93;8.05;;;;;;;20.69;100.00;100404.97;6271755;22;20014;-71
2022/06/04 07:18:03;;;;;;;8.82;7.65;;;;;;;20.71;100.00;100397.47;6273451;22;20019;-71
2022/06/04 07:20:28;;;;;;;9.93;8.88;;;;;;;20.76;100.00;100398.53;6273514;22;20133;-72
2022/06/04 07:22:54;;;;;;;9.38;8.05;;;;;;;20.74;100.00;100386.16;6271952;22;20016;-72
2022/06/04 07:25:21;;;;;;;11.05;8.45;;;;;;;20.88;100.00;100388.78;6273414;22;20363;-72
2022/06/04 07:27:47;;;;;;;10.57;8.95;;;;;;;20.91;100.00;100379.34;6273198;22;20336;-73
2022/06/04 07:30:12;;;;;;;10.25;7.70;;;;;;;21.07;100.00;100382.66;6273375;22;20424;-72
2022/06/04 07:32:38;;;;;;;9.75;8.43;;;;;;;21.23;100.00;100373.28;6273406;22;20015;-72
2022/06/04 07:35:04;;;;;;;10.10;9.02;;;;;;;21.34;100.00;100372.72;6273261;22;20003;-73
2022/06/04 07:37:29;;;;;;;11.80;10.02;;;;;;;21.48;100.00;100358.91;6273347;22;20010;-73
2022/06/04 07:39:55;;;;;;;11.50;9.60;;;;;;;21.57;100.00;100362.34;6273513;22;20018;-72
2022/06/04 07:42:20;;;;;;;12.13;10.38;;;;;;;21.55;100.00;100354.34;6273384;22;20003;-73
2022/06/04 07:44:46;;;;;;;10.40;8.77;;;;;;;21.67;100.00;100354.59;6271588;22;20553;-72
2022/06/04 07:47:12;;;;;;;12.48;9.60;;;;;;;21.75;100.00;100354.44;6274061;22;20036;-73
2022/06/04 07:49:37;;;;;;;11.02;8.45;;;;;;;21.94;100.00;100348.19;6273322;22;20336;-73
2022/06/04 07:52:03;;;;;;;9.45;7.75;;;;;;;22.19;100.00;100368.41;6271727;22;20008;-73
2022/06/04 07:54:31;;;;;;;10.30;8.88;;;;;;;22.39;100.00;100363.81;6271562;22;20004;-73
2022/06/04 07:56:57;;;;;;;12.43;10.25;;;;;;;22.58;100.00;100354.81;6273299;22;20380;-72
2022/06/04 07:59:24;;;;;;;13.77;9.57;;;;;;;22.67;100.00;100348.06;6271471;22;20018;-73
2022/06/04 08:01:49;;;;;;;9.88;8.88;;;;;;;22.91;100.00;100362.94;6273266;22;20011;-73
2022/06/04 08:04:15;;;;;;;11.27;9.95;;;;;;;23.12;100.00;100365.44;6271635;22;20141;-73
2022/06/04 08:06:41;;;;;;;9.77;8.45;;;;;;;23.32;100.00;100361.63;6271506;22;20435;-73
2022/06/04 08:09:07;;;;;;;6.90;6.30;;;;;;;23.57;99.94;100359.00;6271448;22;20003;-73
2022/06/04 08:11:36;;;;;;;10.52;9.02;;;;;;;23.78;98.19;100365.00;6271459;22;20026;-73
2022/06/04 08:14:21;;;;;;;9.10;8.20;;;;;;;23.95;95.97;100366.22;6273138;22;20011;-73
2022/06/04 08:16:59;;;;;;;8.20;7.47;;;;;;;24.20;96.59;100372.59;6272997;22;20079;-74
2022/06/04 08:19:26;;;;;;;8.02;7.32;;;;;;;24.40;96.30;100362.31;6273379;22;20007;-74
2022/06/04 08:21:52;;;;;;;8.27;7.57;;;;;;;24.57;95.52;100356.28;6271541;22;20015;-73
2022/06/04 08:24:18;;;;;;;9.38;8.57;;;;;;;24.73;94.05;100353.00;6273200;22;20007;-73
2022/06/04 08:26:45;;;;;;;12.60;9.30;;;;;;;24.87;92.64;100347.16;6273206;22;20002;-73
2022/06/04 08:29:12;;;;;;;11.85;8.07;;;;;;;25.06;93.63;100348.00;6273240;22;20039;-73
2022/06/04 08:31:39;;;;;;;8.77;7.97;;;;;;;25.20;90.85;100344.03;6273302;22;20003;-73
2022/06/04 08:34:05;;;;;;;8.90;7.72;;;;;;;25.36;90.40;100338.81;6273975;22;20011;-73
2022/06/04 08:36:31;;;;;;;8.02;7.20;;;;;;;25.47;87.94;100334.47;6275056;22;20447;-73
2022/06/04 08:38:57;;;;;;;7.32;6.60;;;;;;;25.54;86.70;100327.81;6275091;22;20003;-73
2022/06/04 08:41:46;;;;;;;7.28;6.40;;;;;;;25.77;85.05;100351.81;6273436;22;20014;-73
2022/06/04 08:44:43;;;;;;;6.75;5.50;;;;;;;25.90;84.30;100344.25;6275017;22;20000;-73
2022/06/04 08:47:25;;;;;;;6.35;5.82;;;;;;;26.05;84.26;100341.09;6267763;22;20004;-73
2022/06/04 08:49:51;;;;;;;8.07;6.95;;;;;;;26.17;82.59;100336.44;6275050;22;20011;-73
2022/06/04 08:52:28;;;;;;;6.80;6.10;;;;;;;26.26;81.09;100330.41;6275046;22;20224;-73
2022/06/04 08:58:00;;;;;;;5.80;5.30;;;;;;;26.48;79.28;100341.66;6274665;22;20097;-73
2022/06/04 09:00:41;;;;;;;6.03;5.53;;;;;;;26.56;78.19;100332.25;6274848;22;20007;-73
2022/06/04 09:03:22;;;;;;;5.47;4.97;;;;;;;26.61;77.30;100340.59;6274938;22;20095;-73
2022/06/04 09:06:06;;;;;;;6.90;5.70;;;;;;;26.75;76.57;100351.16;6274770;22;20086;-73
2022/06/04 09:09:06;;;;;;;7.15;5.57;;;;;;;26.88;75.38;100356.44;6273304;22;20004;-74
2022/06/04 09:11:52;;;;;;;6.05;5.45;;;;;;;26.99;74.89;100355.63;6273312;22;20042;-73
2022/06/04 09:14:26;;;;;;;5.22;4.15;;;;;;;27.15;74.61;100356.78;6274861;22;20007;-73
2022/06/04 09:17:05;;;;;;;5.30;4.80;;;;;;;27.15;74.15;100354.03;6274676;22;20008;-73
2022/06/04 09:19:35;;;;;;;6.63;5.10;;;;;;;27.07;72.15;100354.41;6274967;22;20038;-74
2022/06/04 09:22:03;;;;;;;7.15;5.10;;;;;;;27.06;73.44;100356.31;6275054;22;20008;-73
2022/06/04 09:24:29;;;;;;;5.75;5.10;;;;;;;27.05;73.58;100359.31;6274888;22;19999;-73
2022/06/04 09:27:17;;;;;;;5.43;4.60;;;;;;;27.05;73.96;100357.38;6274543;22;19999;-73
2022/06/04 09:30:17;;;;;;;4.88;4.45;;;;;;;27.06;72.76;100353.56;6274601;22;20014;-73
2022/06/04 09:32:54;;;;;;;4.07;3.72;;;;;;;27.11;72.43;100347.34;6180604;23;20017;-73
2022/06/04 09:35:26;;;;;;;5.28;4.78;;;;;;;27.13;72.29;100348.78;6262058;22;20015;-73
2022/06/04 09:37:52;;;;;;;7.18;6.22;;;;;;;27.21;72.09;100344.81;6274593;22;20379;-73
2022/06/04 09:40:20;;;;;;;4.78;3.80;;;;;;;27.32;70.34;100350.34;6274829;22;20331;-73
2022/06/04 09:42:45;;;;;;;4.85;3.63;;;;;;;27.31;70.49;100354.16;6273307;22;20008;-73
2022/06/04 09:45:27;;;;;;;5.72;4.32;;;;;;;27.33;70.23;100351.16;6273274;22;20037;-73
2022/06/04 09:47:58;;;;;;;5.03;3.78;;;;;;;27.28;70.25;100353.81;6249868;22;20034;-73
2022/06/04 09:50:29;;;;;;;7.25;5.05;;;;;;;27.27;71.16;100358.47;6274551;22;20376;-73
2022/06/04 09:53:04;;;;;;;8.18;4.50;;;;;;;27.34;71.61;100359.19;6274479;22;20008;-73
2022/06/04 09:55:32;;;;;;;5.28;4.30;;;;;;;27.39;71.74;100353.78;6274359;22;20377;-73
2022/06/04 09:58:03;;;;;;;5.18;4.38;;;;;;;27.41;70.81;100359.91;6274356;22;20333;-73
2022/06/04 10:00:35;;;;;;;5.53;3.85;;;;;;;27.43;69.84;100352.22;6274470;22;20336;-73
2022/06/04 10:03:14;;;;;;;4.97;3.90;;;;;;;27.40;69.30;100336.16;6274181;22;20011;-73
2022/06/04 10:06:04;;;;;;;7.15;4.30;;;;;;;27.50;69.43;100354.84;6273915;22;20008;-73
2022/06/04 10:09:54;;;;;;;5.85;4.30;;;;;;;27.54;69.30;100361.53;6274225;22;20000;-73
2022/06/04 10:11:22;;;;;;;7.25;5.50;;;;;;;27.55;68.70;100349.44;6274363;22;20004;-73
2022/06/04 10:13:50;;;;;;;7.47;5.03;;;;;;;27.67;68.63;100353.00;6272711;22;20444;-73
2022/06/04 10:16:23;;;;;;;8.02;5.90;;;;;;;27.72;68.30;100358.59;6273921;22;20060;-73
2022/06/04 10:18:59;;;;;;;7.90;6.95;;;;;;;27.79;67.94;100353.81;6273994;22;20069;-73
2022/06/04 10:21:37;;;;;;;6.85;5.20;;;;;;;27.86;67.06;100347.06;6272538;22;20454;-73
2022/06/04 10:24:27;;;;;;;6.18;5.57;;;;;;;27.89;66.52;100348.53;6274282;22;20348;-73
2022/06/04 10:27:04;;;;;;;10.85;6.45;;;;;;;27.97;65.92;100354.47;6273563;22;20003;-73
2022/06/04 10:29:49;;;;;;;8.60;6.70;;;;;;;28.08;65.91;100341.72;6273978;22;20057;-74
2022/06/04 10:32:29;;;;;;;12.02;8.38;;;;;;;28.21;66.24;100353.25;6274072;22;20370;-75
2022/06/04 10:34:57;;;;;;;14.82;8.55;;;;;;;28.32;64.26;100357.03;6273621;22;20012;-74
2022/06/04 10:37:51;;;;;;;11.80;10.48;;;;;;;28.42;64.09;100363.59;6273584;22;20007;-74
2022/06/04 10:40:35;;;;;;;8.82;7.93;;;;;;;28.50;62.70;100357.66;6274228;22;20003;-74
2022/06/04 10:43:27;;;;;;;10.68;7.60;;;;;;;28.51;61.94;100351.06;6274183;22;20064;-74
2022/06/04 10:46:31;;;;;;;11.30;7.82;;;;;;;28.43;62.21;100334.03;6273613;22;20004;-74
2022/06/04 10:49:34;;;;;;;9.40;7.53;;;;;;;28.48;62.67;100345.22;6272167;22;20010;-74
2022/06/04 10:52:33;;;;;;;7.20;6.47;;;;;;;28.45;63.11;100340.19;6272485;22;20007;-74
2022/06/04 10:55:15;;;;;;;7.13;5.50;;;;;;;28.48;62.51;100339.69;6274034;22;20007;-74
2022/06/04 10:57:51;;;;;;;5.97;4.78;;;;;;;28.50;61.83;100346.63;6273002;22;20103;-74
2022/06/04 11:00:22;;;;;;;7.43;4.95;;;;;;;28.45;62.09;100354.84;6273722;22;20007;-74
2022/06/04 11:03:06;;;;;;;5.85;5.03;;;;;;;28.43;61.88;100350.59;6273585;22;20014;-74
2022/06/04 11:05:39;;;;;;;6.18;4.97;;;;;;;28.32;63.09;100344.09;6273701;22;20012;-74
2022/06/04 11:08:27;;;;;;;6.90;3.55;;;;;;;28.34;64.10;100357.66;6273643;22;20000;-74
2022/06/04 11:11:17;;;;;;;3.58;2.60;;;;;;;28.29;63.94;100352.03;6273577;22;20030;-74
2022/06/04 11:13:47;;;;;;;4.45;2.80;;;;;;;28.28;63.68;100347.59;6273661;22;20031;-74
2022/06/04 11:16:37;;;;;;;3.80;3.10;;;;;;;28.16;64.46;100355.94;6273701;22;20053;-74
2022/06/04 11:19:06;;;;;;;3.60;3.20;;;;;;;28.14;64.34;100349.81;6242864;22;20004;-73
2022/06/04 11:21:34;;;;;;;3.50;3.17;;;;;;;28.12;64.88;100349.22;6243052;22;20016;-73
2022/06/04 11:24:19;;;;;;;3.10;2.80;;;;;;;28.12;64.95;100357.50;6241561;23;20019;-73
2022/06/04 11:26:53;;;;;;;5.95;3.60;;;;;;;28.15;64.13;100359.75;6242920;22;20000;-73
2022/06/04 11:29:18;;;;;;;3.67;3.38;;;;;;;28.15;63.71;100351.50;6242697;22;20416;-73
2022/06/04 11:32:13;;;;;;;3.45;3.15;;;;;;;28.18;63.48;100344.66;6242766;22;20006;-73
2022/06/04 11:34:58;;;;;;;8.55;3.65;;;;;;;28.13;63.75;100339.88;6242807;22;20000;-73
2022/06/04 11:37:27;;;;;;;5.45;3.47;;;;;;;28.18;64.55;100350.19;6242718;22;20059;-73
2022/06/04 11:40:07;;;;;;;4.82;4.00;;;;;;;28.17;64.61;100338.28;6241129;23;20019;-73
2022/06/04 11:42:39;;;;;;;4.43;4.03;;;;;;;28.19;64.74;100338.91;6242831;22;20424;-73
2022/06/04 11:45:22;;;;;;;4.35;3.80;;;;;;;28.26;64.35;100339.56;6242831;22;20058;-73
2022/06/04 11:48:09;;;;;;;4.72;4.07;;;;;;;28.31;63.26;100339.66;6242563;23;20106;-73
2022/06/04 11:50:53;;;;;;;4.03;3.65;;;;;;;28.33;63.43;100339.41;6242540;22;20012;-73
2022/06/04 11:53:24;;;;;;;5.35;4.85;;;;;;;28.31;63.08;100347.09;6242786;23;20082;-73
2022/06/04 11:56:21;;;;;;;5.28;4.35;;;;;;;28.28;63.34;100342.91;6240851;23;20015;-73
2022/06/04 11:59:19;;;;;;;4.05;3.65;;;;;;;28.42;63.39;100352.53;6242557;23;20039;-73
2022/06/04 12:01:55;;;;;;;5.60;4.35;;;;;;;28.41;63.11;100348.09;6214699;22;20008;-74
2022/06/04 12:04:41;;;;;;;4.82;4.43;;;;;;;28.41;62.18;100347.28;6242699;22;20078;-73
2022/06/04 12:07:34;;;;;;;4.03;3.63;;;;;;;28.39;61.49;100350.28;6241127;23;20329;-73